sensor_id;sensor_type;location;lat;lon;timestamp;pressure;altitude;pressure_sealevel;temperature;humidity
54262;BME280;40174;52.364;6.452;2023-02-20T00:01:55;102200.13;;;4.45;100.00
54262;BME280;40174;52.364;6.452;2023-02-20T00:04:22;102187.97;;;4.42;100.00
54262;BME280;40174;52.364;6.452;2023-02-20T00:06:49;102182.78;;;4.41;100.00
54262;BME280;40174;52.364;6.452;2023-02-20T00:09:16;102180.28;;;4.37;100.00
54262;BME280;40174;52.364;6.452;2023-02-20T00:11:42;102182.91;;;4.37;100.00
54262;BME280;40174;52.364;6.452;2023-02-20T00:14:09;102174.97;;;4.39;100.00
54262;BME280;40174;52.364;6.452;2023-02-20T00:16:36;102164.34;;;4.44;100.00
54262;BME280;40174;52.364;6.452;2023-02-20T00:19:04;102160.00;;;4.44;100.00
54262;BME280;40174;52.364;6.452;2023-02-20T00:21:31;102142.66;;;4.40;100.00
54262;BME280;40174;52.364;6.452;2023-02-20T00:23:57;102136.59;;;4.40;100.00
54262;BME280;40174;52.364;6.452;2023-02-20T00:26:24;102138.28;;;4.41;100.00
54262;BME280;40174;52.364;6.452;2023-02-20T00:28:51;102138.31;;;4.39;100.00
54262;BME280;40174;52.364;6.452;2023-02-20T00:31:18;102148.78;;;4.39;100.00
54262;BME280;40174;52.364;6.452;2023-02-20T00:33:44;102133.97;;;4.40;100.00
54262;BME280;40174;52.364;6.452;2023-02-20T00:36:16;102138.28;;;4.41;100.00
54262;BME280;40174;52.364;6.452;2023-02-20T00:38:44;102130.38;;;4.42;100.00
54262;BME280;40174;52.364;6.452;2023-02-20T00:41:11;102133.03;;;4.41;100.00
54262;BME280;40174;52.364;6.452;2023-02-20T00:43:39;102118.19;;;4.41;100.00
54262;BME280;40174;52.364;6.452;2023-02-20T00:46:05;102115.56;;;4.41;100.00
54262;BME280;40174;52.364;6.452;2023-02-20T00:48:32;102109.38;;;4.44;100.00
54262;BME280;40174;52.364;6.452;2023-02-20T00:51:20;102112.06;;;4.42;100.00
54262;BME280;40174;52.364;6.452;2023-02-20T00:53:47;102111.94;;;4.45;100.00
54262;BME280;40174;52.364;6.452;2023-02-20T00:56:13;102110.16;;;4.46;100.00
54262;BME280;40174;52.364;6.452;2023-02-20T00:58:40;102111.94;;;4.45;100.00
54262;BME280;40174;52.364;6.452;2023-02-20T01:01:08;102106.72;;;4.45;100.00
54262;BME280;40174;52.364;6.452;2023-02-20T01:03:35;102093.56;;;4.47;100.00
54262;BME280;40174;52.364;6.452;2023-02-20T01:06:02;102089.06;;;4.50;100.00
54262;BME280;40174;52.364;6.452;2023-02-20T01:08:30;102083.09;;;4.47;100.00
54262;BME280;40174;52.364;6.452;2023-02-20T01:10:56;102086.59;;;4.46;100.00
54262;BME280;40174;52.364;6.452;2023-02-20T01:13:23;102073.34;;;4.50;100.00
54262;BME280;40174;52.364;6.452;2023-02-20T01:15:50;102069.03;;;4.49;100.00
54262;BME280;40174;52.364;6.452;2023-02-20T01:18:17;102082.09;;;4.51;100.00
54262;BME280;40174;52.364;6.452;2023-02-20T01:20:44;102074.28;;;4.49;100.00
54262;BME280;40174;52.364;6.452;2023-02-20T01:23:10;102056.84;;;4.48;100.00
54262;BME280;40174;52.364;6.452;2023-02-20T01:25:38;102049.00;;;4.48;100.00
54262;BME280;40174;52.364;6.452;2023-02-20T01:28:05;102037.66;;;4.48;100.00
54262;BME280;40174;52.364;6.452;2023-02-20T01:30:32;102044.47;;;4.53;100.00
54262;BME280;40174;52.364;6.452;2023-02-20T01:32:58;102034.84;;;4.54;100.00
54262;BME280;40174;52.364;6.452;2023-02-20T01:35:25;102035.75;;;4.53;100.00
54262;BME280;40174;52.364;6.452;2023-02-20T01:37:55;102033.81;;;4.58;100.00
54262;BME280;40174;52.364;6.452;2023-02-20T01:40:22;102022.69;;;4.53;100.00
54262;BME280;40174;52.364;6.452;2023-02-20T01:42:50;102018.31;;;4.52;100.00
54262;BME280;40174;52.364;6.452;2023-02-20T01:45:27;102013.09;;;4.52;100.00
54262;BME280;40174;52.364;6.452;2023-02-20T01:47:55;102002.50;;;4.55;100.00
54262;BME280;40174;52.364;6.452;2023-02-20T01:50:25;102012.97;;;4.55;100.00
54262;BME280;40174;52.364;6.452;2023-02-20T01:52:55;102015.41;;;4.59;100.00
54262;BME280;40174;52.364;6.452;2023-02-20T01:55:25;102005.88;;;4.58;100.00
54262;BME280;40174;52.364;6.452;2023-02-20T01:57:56;102011.06;;;4.60;100.00
54262;BME280;40174;52.364;6.452;2023-02-20T02:00:25;101993.63;;;4.59;100.00
54262;BME280;40174;52.364;6.452;2023-02-20T02:02:59;101991.84;;;4.59;100.00
54262;BME280;40174;52.364;6.452;2023-02-20T02:05:29;101977.91;;;4.59;100.00
54262;BME280;40174;52.364;6.452;2023-02-20T02:08:00;101978.66;;;4.63;100.00
54262;BME280;40174;52.364;6.452;2023-02-20T02:10:32;101975.25;;;4.61;100.00
54262;BME280;40174;52.364;6.452;2023-02-20T02:13:02;101978.66;;;4.63;100.00
54262;BME280;40174;52.364;6.452;2023-02-20T02:15:30;101979.34;;;4.68;100.00
54262;BME280;40174;52.364;6.452;2023-02-20T02:18:06;101963.75;;;4.65;100.00
54262;BME280;40174;52.364;6.452;2023-02-20T02:20:58;101967.34;;;4.62;100.00
54262;BME280;40174;52.364;6.452;2023-02-20T02:26:58;101960.44;;;4.59;100.00
54262;BME280;40174;52.364;6.452;2023-02-20T02:29:44;101959.41;;;4.64;100.00
54262;BME280;40174;52.364;6.452;2023-02-20T02:35:25;101957.53;;;4.67;100.00
54262;BME280;40174;52.364;6.452;2023-02-20T02:38:01;101943.69;;;4.64;100.00
54262;BME280;40174;52.364;6.452;2023-02-20T02:40:39;101937.47;;;4.66;100.00
54262;BME280;40174;52.364;6.452;2023-02-20T02:43:08;101939.44;;;4.61;100.00
54262;BME280;40174;52.364;6.452;2023-02-20T02:45:45;101935.97;;;4.61;100.00
54262;BME280;40174;52.364;6.452;2023-02-20T02:48:18;101924.69;;;4.58;100.00
54262;BME280;40174;52.364;6.452;2023-02-20T02:50:47;101922.03;;;4.60;100.00
54262;BME280;40174;52.364;6.452;2023-02-20T02:53:16;101920.22;;;4.62;100.00
54262;BME280;40174;52.364;6.452;2023-02-20T02:55:43;101922.88;;;4.61;100.00
54262;BME280;40174;52.364;6.452;2023-02-20T02:58:11;101917.69;;;4.59;100.00
54262;BME280;40174;52.364;6.452;2023-02-20T03:00:42;101916.78;;;4.60;100.00
54262;BME280;40174;52.364;6.452;2023-02-20T03:03:15;101905.38;;;4.61;100.00
54262;BME280;40174;52.364;6.452;2023-02-20T03:05:51;101911.56;;;4.60;100.00
54262;BME280;40174;52.364;6.452;2023-02-20T03:08:26;101908.06;;;4.59;100.00
54262;BME280;40174;52.364;6.452;2023-02-20T03:10:59;101898.47;;;4.60;100.00
54262;BME280;40174;52.364;6.452;2023-02-20T03:13:29;101902.09;;;4.56;100.00
54262;BME280;40174;52.364;6.452;2023-02-20T03:16:16;101902.81;;;4.59;100.00
54262;BME280;40174;52.364;6.452;2023-02-20T03:18:46;101906.41;;;4.57;100.00
54262;BME280;40174;52.364;6.452;2023-02-20T03:21:17;101906.22;;;4.62;100.00
54262;BME280;40174;52.364;6.452;2023-02-20T03:23:51;101906.41;;;4.57;100.00
54262;BME280;40174;52.364;6.452;2023-02-20T03:26:25;101914.22;;;4.58;100.00
54262;BME280;40174;52.364;6.452;2023-02-20T03:28:57;101916.03;;;4.56;100.00
54262;BME280;40174;52.364;6.452;2023-02-20T03:31:30;101921.22;;;4.58;100.00
54262;BME280;40174;52.364;6.452;2023-02-20T03:34:03;101911.47;;;4.62;100.00
54262;BME280;40174;52.364;6.452;2023-02-20T03:36:53;101901.91;;;4.61;100.00
54262;BME280;40174;52.364;6.452;2023-02-20T03:39:44;101904.38;;;4.65;100.00
54262;BME280;40174;52.364;6.452;2023-02-20T03:42:34;101901.69;;;4.67;100.00
54262;BME280;40174;52.364;6.452;2023-02-20T03:45:27;101908.53;;;4.71;100.00
54262;BME280;40174;52.364;6.452;2023-02-20T03:48:00;101903.28;;;4.71;100.00
54262;BME280;40174;52.364;6.452;2023-02-20T03:50:31;101903.28;;;4.71;100.00
54262;BME280;40174;52.364;6.452;2023-02-20T03:52:58;101897.91;;;4.74;100.00
54262;BME280;40174;52.364;6.452;2023-02-20T03:55:26;101905.78;;;4.74;100.00
54262;BME280;40174;52.364;6.452;2023-02-20T03:57:57;101903.03;;;4.77;100.00
54262;BME280;40174;52.364;6.452;2023-02-20T04:00:29;101888.25;;;4.76;100.00
54262;BME280;40174;52.364;6.452;2023-02-20T04:03:02;101882.91;;;4.77;100.00
54262;BME280;40174;52.364;6.452;2023-02-20T04:05:39;101887.31;;;4.77;100.00
54262;BME280;40174;52.364;6.452;2023-02-20T04:08:10;101881.03;;;4.81;100.00
54262;BME280;40174;52.364;6.452;2023-02-20T04:10:43;101872.34;;;4.81;100.00
54262;BME280;40174;52.364;6.452;2023-02-20T04:13:14;101875.75;;;4.83;100.00
54262;BME280;40174;52.364;6.452;2023-02-20T04:15:46;101869.72;;;4.81;100.00
54262;BME280;40174;52.364;6.452;2023-02-20T04:18:16;101876.56;;;4.85;100.00
54262;BME280;40174;52.364;6.452;2023-02-20T04:20:45;101874.66;;;4.88;100.00
54262;BME280;40174;52.364;6.452;2023-02-20T04:23:24;101869.31;;;4.91;100.00
54262;BME280;40174;52.364;6.452;2023-02-20T04:25:56;101869.97;;;4.96;100.00
54262;BME280;40174;52.364;6.452;2023-02-20T04:28:24;101867.41;;;4.95;100.00
54262;BME280;40174;52.364;6.452;2023-02-20T04:30:56;101867.34;;;4.96;100.00
54262;BME280;40174;52.364;6.452;2023-02-20T04:33:23;101855.13;;;4.95;100.00
54262;BME280;40174;52.364;6.452;2023-02-20T04:35:53;101864.59;;;4.99;100.00
54262;BME280;40174;52.364;6.452;2023-02-20T04:38:23;101852.38;;;5.00;100.00
54262;BME280;40174;52.364;6.452;2023-02-20T04:40:50;101852.22;;;5.03;100.00
54262;BME280;40174;52.364;6.452;2023-02-20T04:43:20;101860.69;;;5.10;100.00
54262;BME280;40174;52.364;6.452;2023-02-20T04:45:47;101857.41;;;5.05;100.00
54262;BME280;40174;52.364;6.452;2023-02-20T04:48:14;101867.72;;;5.09;100.00
54262;BME280;40174;52.364;6.452;2023-02-20T04:50:41;101858.78;;;5.13;100.00
54262;BME280;40174;52.364;6.452;2023-02-20T04:53:10;101855.22;;;5.16;100.00
54262;BME280;40174;52.364;6.452;2023-02-20T04:55:36;101857.88;;;5.14;100.00
54262;BME280;40174;52.364;6.452;2023-02-20T04:58:08;101854.13;;;5.20;100.00
54262;BME280;40174;52.364;6.452;2023-02-20T05:00:49;101857.63;;;5.20;100.00
54262;BME280;40174;52.364;6.452;2023-02-20T05:03:16;101850.56;;;5.23;100.00
54262;BME280;40174;52.364;6.452;2023-02-20T05:05:42;101852.31;;;5.22;100.00
54262;BME280;40174;52.364;6.452;2023-02-20T05:08:09;101846.97;;;5.25;100.00
54262;BME280;40174;52.364;6.452;2023-02-20T05:10:35;101849.44;;;5.28;100.00
54262;BME280;40174;52.364;6.452;2023-02-20T05:13:02;101843.34;;;5.28;100.00
54262;BME280;40174;52.364;6.452;2023-02-20T05:15:30;101843.41;;;5.26;100.00
54262;BME280;40174;52.364;6.452;2023-02-20T05:17:58;101850.09;;;5.33;100.00
54262;BME280;40174;52.364;6.452;2023-02-20T05:20:25;101850.97;;;5.34;100.00
54262;BME280;40174;52.364;6.452;2023-02-20T05:23:17;101857.94;;;5.33;100.00
54262;BME280;40174;52.364;6.452;2023-02-20T05:25:43;101847.56;;;5.32;100.00
54262;BME280;40174;52.364;6.452;2023-02-20T05:28:09;101843.09;;;5.34;100.00
54262;BME280;40174;52.364;6.452;2023-02-20T05:30:36;101849.06;;;5.37;100.00
54262;BME280;40174;52.364;6.452;2023-02-20T05:33:04;101854.28;;;5.37;100.00
54262;BME280;40174;52.364;6.452;2023-02-20T05:35:30;101839.28;;;5.41;100.00
54262;BME280;40174;52.364;6.452;2023-02-20T05:37:57;101843.59;;;5.42;100.00
54262;BME280;40174;52.364;6.452;2023-02-20T05:40:24;101838.16;;;5.47;100.00
54262;BME280;40174;52.364;6.452;2023-02-20T05:42:50;101832.03;;;5.48;100.00
54262;BME280;40174;52.364;6.452;2023-02-20T05:45:17;101822.22;;;5.51;100.00
54262;BME280;40174;52.364;6.452;2023-02-20T05:47:43;101811.44;;;5.59;100.00
54262;BME280;40174;52.364;6.452;2023-02-20T05:50:11;101818.16;;;5.65;100.00
54262;BME280;40174;52.364;6.452;2023-02-20T05:52:38;101818.25;;;5.63;100.00
54262;BME280;40174;52.364;6.452;2023-02-20T05:55:05;101821.78;;;5.62;100.00
54262;BME280;40174;52.364;6.452;2023-02-20T05:57:31;101820.09;;;5.61;100.00
54262;BME280;40174;52.364;6.452;2023-02-20T05:59:58;101814.91;;;5.59;100.00
54262;BME280;40174;52.364;6.452;2023-02-20T06:02:25;101814.84;;;5.61;100.00
54262;BME280;40174;52.364;6.452;2023-02-20T06:04:51;101815.47;;;5.66;100.00
54262;BME280;40174;52.364;6.452;2023-02-20T06:07:19;101809.13;;;5.72;100.00
54262;BME280;40174;52.364;6.452;2023-02-20T06:09:46;101816.06;;;5.73;100.00
54262;BME280;40174;52.364;6.452;2023-02-20T06:12:13;101829.03;;;5.76;100.00
54262;BME280;40174;52.364;6.452;2023-02-20T06:14:40;101824.50;;;5.79;100.00
54262;BME280;40174;52.364;6.452;2023-02-20T06:17:07;101825.41;;;5.78;100.00
54262;BME280;40174;52.364;6.452;2023-02-20T06:19:33;101829.69;;;5.81;100.00
54262;BME280;40174;52.364;6.452;2023-02-20T06:22:00;101824.50;;;5.79;100.00
54262;BME280;40174;52.364;6.452;2023-02-20T06:24:28;101826.09;;;5.83;100.00
54262;BME280;40174;52.364;6.452;2023-02-20T06:26:55;101812.88;;;5.85;100.00
54262;BME280;40174;52.364;6.452;2023-02-20T06:29:22;101813.03;;;5.82;100.00
54262;BME280;40174;52.364;6.452;2023-02-20T06:31:49;101822.47;;;5.86;100.00
54262;BME280;40174;52.364;6.452;2023-02-20T06:34:16;101820.41;;;5.93;100.00
54262;BME280;40174;52.364;6.452;2023-02-20T06:36:43;101814.38;;;5.91;100.00
54262;BME280;40174;52.364;6.452;2023-02-20T06:39:11;101816.06;;;5.92;100.00
54262;BME280;40174;52.364;6.452;2023-02-20T06:41:39;101816.00;;;5.95;100.00
54262;BME280;40174;52.364;6.452;2023-02-20T06:44:06;101813.41;;;5.93;100.00
54262;BME280;40174;52.364;6.452;2023-02-20T06:46:32;101805.53;;;5.93;100.00
54262;BME280;40174;52.364;6.452;2023-02-20T06:48:59;101812.31;;;5.99;100.00
54262;BME280;40174;52.364;6.452;2023-02-20T06:51:30;101807.75;;;6.02;100.00
54262;BME280;40174;52.364;6.452;2023-02-20T06:53:58;101807.84;;;6.01;100.00
54262;BME280;40174;52.364;6.452;2023-02-20T06:56:27;101802.59;;;6.01;100.00
54262;BME280;40174;52.364;6.452;2023-02-20T06:58:55;101803.22;;;6.06;100.00
54262;BME280;40174;52.364;6.452;2023-02-20T07:01:25;101803.88;;;6.11;100.00
54262;BME280;40174;52.364;6.452;2023-02-20T07:03:53;101797.81;;;6.09;100.00
54262;BME280;40174;52.364;6.452;2023-02-20T07:06:20;101795.19;;;6.09;100.00
54262;BME280;40174;52.364;6.452;2023-02-20T07:08:47;101806.34;;;6.14;100.00
54262;BME280;40174;52.364;6.452;2023-02-20T07:11:15;101801.88;;;6.16;100.00
54262;BME280;40174;52.364;6.452;2023-02-20T07:13:43;101813.94;;;6.20;100.00
54262;BME280;40174;52.364;6.452;2023-02-20T07:16:11;101815.66;;;6.21;100.00
54262;BME280;40174;52.364;6.452;2023-02-20T07:18:37;101813.81;;;6.23;100.00
54262;BME280;40174;52.364;6.452;2023-02-20T07:21:04;101815.56;;;6.23;100.00
54262;BME280;40174;52.364;6.452;2023-02-20T07:23:31;101824.31;;;6.23;100.00
54262;BME280;40174;52.364;6.452;2023-02-20T07:25:58;101819.06;;;6.23;100.00
54262;BME280;40174;52.364;6.452;2023-02-20T07:28:24;101818.13;;;6.24;100.00
54262;BME280;40174;52.364;6.452;2023-02-20T07:30:51;101820.59;;;6.28;100.00
54262;BME280;40174;52.364;6.452;2023-02-20T07:33:19;101819.63;;;6.30;100.00
54262;BME280;40174;52.364;6.452;2023-02-20T07:35:46;101816.84;;;6.33;100.00
54262;BME280;40174;52.364;6.452;2023-02-20T07:38:13;101824.50;;;6.38;100.00
54262;BME280;40174;52.364;6.452;2023-02-20T07:40:40;101823.56;;;6.39;100.00
54262;BME280;40174;52.364;6.452;2023-02-20T07:43:07;101823.50;;;6.40;100.00
54262;BME280;40174;52.364;6.452;2023-02-20T07:45:36;101819.97;;;6.41;100.00
54262;BME280;40174;52.364;6.452;2023-02-20T07:48:04;101828.31;;;6.50;100.00
54262;BME280;40174;52.364;6.452;2023-02-20T07:50:32;101821.94;;;6.55;100.00
54262;BME280;40174;52.364;6.452;2023-02-20T07:52:58;101819.38;;;6.54;100.00
54262;BME280;40174;52.364;6.452;2023-02-20T07:55:25;101819.31;;;6.55;100.00
54262;BME280;40174;52.364;6.452;2023-02-20T07:57:51;101824.41;;;6.58;100.00
54262;BME280;40174;52.364;6.452;2023-02-20T08:00:23;101823.50;;;6.59;100.00
54262;BME280;40174;52.364;6.452;2023-02-20T08:02:50;101821.72;;;6.60;100.00
54262;BME280;40174;52.364;6.452;2023-02-20T08:05:17;101815.41;;;6.64;100.00
54262;BME280;40174;52.364;6.452;2023-02-20T08:07:47;101813.47;;;6.68;100.00
54262;BME280;40174;52.364;6.452;2023-02-20T08:10:15;101809.84;;;6.70;100.00
54262;BME280;40174;52.364;6.452;2023-02-20T08:12:43;101798.34;;;6.73;100.00
54262;BME280;40174;52.364;6.452;2023-02-20T08:15:10;101800.75;;;6.77;100.00
54262;BME280;40174;52.364;6.452;2023-02-20T08:17:37;101806.78;;;6.79;100.00
54262;BME280;40174;52.364;6.452;2023-02-20T08:20:05;101799.66;;;6.81;100.00
54262;BME280;40174;52.364;6.452;2023-02-20T08:22:31;101792.66;;;6.82;100.00
54262;BME280;40174;52.364;6.452;2023-02-20T08:24:59;101802.06;;;6.86;100.00
54262;BME280;40174;52.364;6.452;2023-02-20T08:27:28;101797.81;;;6.83;100.00
54262;BME280;40174;52.364;6.452;2023-02-20T08:29:55;101810.72;;;6.88;100.00
54262;BME280;40174;52.364;6.452;2023-02-20T08:32:21;101797.56;;;6.88;100.00
54262;BME280;40174;52.364;6.452;2023-02-20T08:34:48;101804.56;;;6.89;100.00
54262;BME280;40174;52.364;6.452;2023-02-20T08:37:15;101798.22;;;6.93;100.00
54262;BME280;40174;52.364;6.452;2023-02-20T08:39:41;101802.53;;;6.94;100.00
54262;BME280;40174;52.364;6.452;2023-02-20T08:42:09;101795.44;;;6.96;100.00
54262;BME280;40174;52.364;6.452;2023-02-20T08:44:40;101788.31;;;6.98;100.00
54262;BME280;40174;52.364;6.452;2023-02-20T08:47:06;101788.31;;;6.98;100.00
54262;BME280;40174;52.364;6.452;2023-02-20T08:49:33;101800.38;;;7.02;100.00
54262;BME280;40174;52.364;6.452;2023-02-20T08:51:59;101797.75;;;7.02;100.00
54262;BME280;40174;52.364;6.452;2023-02-20T08:54:27;101796.81;;;7.03;100.00
54262;BME280;40174;52.364;6.452;2023-02-20T08:56:54;101793.28;;;7.04;100.00
54262;BME280;40174;52.364;6.452;2023-02-20T08:59:22;101790.47;;;7.07;100.00
54262;BME280;40174;52.364;6.452;2023-02-20T09:01:48;101794.59;;;7.13;100.00
54262;BME280;40174;52.364;6.452;2023-02-20T09:04:15;101797.38;;;7.10;100.00
54262;BME280;40174;52.364;6.452;2023-02-20T09:06:44;101803.47;;;7.11;100.00
54262;BME280;40174;52.364;6.452;2023-02-20T09:09:11;101805.97;;;7.14;100.00
54262;BME280;40174;52.364;6.452;2023-02-20T09:11:37;101802.25;;;7.18;100.00
54262;BME280;40174;52.364;6.452;2023-02-20T09:14:04;101806.50;;;7.20;100.00
54262;BME280;40174;52.364;6.452;2023-02-20T09:16:32;101793.34;;;7.20;100.00
54262;BME280;40174;52.364;6.452;2023-02-20T09:18:59;101803.63;;;7.25;100.00
54262;BME280;40174;52.364;6.452;2023-02-20T09:21:25;101794.81;;;7.26;100.00
54262;BME280;40174;52.364;6.452;2023-02-20T09:23:53;101792.16;;;7.26;100.00
54262;BME280;40174;52.364;6.452;2023-02-20T09:26:20;101809.56;;;7.28;100.00
54262;BME280;40174;52.364;6.452;2023-02-20T09:28:46;101806.94;;;7.28;100.00
54262;BME280;40174;52.364;6.452;2023-02-20T09:31:13;101809.50;;;7.30;100.00
54262;BME280;40174;52.364;6.452;2023-02-20T09:33:44;101825.28;;;7.30;100.00
54262;BME280;40174;52.364;6.452;2023-02-20T09:36:11;101811.13;;;7.33;100.00
54262;BME280;40174;52.364;6.452;2023-02-20T09:38:38;101811.13;;;7.33;100.00
54262;BME280;40174;52.364;6.452;2023-02-20T09:41:05;101818.78;;;7.37;100.00
54262;BME280;40174;52.364;6.452;2023-02-20T09:43:43;101820.72;;;7.34;100.00
54262;BME280;40174;52.364;6.452;2023-02-20T09:46:15;101812.66;;;7.37;100.00
54262;BME280;40174;52.364;6.452;2023-02-20T09:48:53;101814.28;;;7.39;100.00
54262;BME280;40174;52.364;6.452;2023-02-20T09:51:24;101812.50;;;7.40;100.00
54262;BME280;40174;52.364;6.452;2023-02-20T09:53:57;101813.81;;;7.48;100.00
54262;BME280;40174;52.364;6.452;2023-02-20T09:56:29;101810.34;;;7.48;100.00
54262;BME280;40174;52.364;6.452;2023-02-20T09:59:02;101802.22;;;7.53;100.00
54262;BME280;40174;52.364;6.452;2023-02-20T10:01:31;101807.31;;;7.56;100.00
54262;BME280;40174;52.364;6.452;2023-02-20T10:04:03;101802.06;;;7.56;100.00
54262;BME280;40174;52.364;6.452;2023-02-20T10:06:32;101816.75;;;7.60;100.00
54262;BME280;40174;52.364;6.452;2023-02-20T10:09:00;101814.97;;;7.60;100.00
54262;BME280;40174;52.364;6.452;2023-02-20T10:11:47;101819.91;;;7.66;100.00
54262;BME280;40174;52.364;6.452;2023-02-20T10:14:37;101810.25;;;7.67;100.00
54262;BME280;40174;52.364;6.452;2023-02-20T10:17:12;101803.03;;;7.70;100.00
54262;BME280;40174;52.364;6.452;2023-02-20T10:19:48;101796.06;;;7.69;100.00
54262;BME280;40174;52.364;6.452;2023-02-20T10:22:19;101807.28;;;7.73;100.00
54262;BME280;40174;52.364;6.452;2023-02-20T10:24:55;101775.69;;;7.73;100.00
54262;BME280;40174;52.364;6.452;2023-02-20T10:27:30;101815.69;;;7.80;100.00
54262;BME280;40174;52.364;6.452;2023-02-20T10:30:01;101790.16;;;7.82;100.00
54262;BME280;40174;52.364;6.452;2023-02-20T10:32:35;101795.66;;;7.77;100.00
54262;BME280;40174;52.364;6.452;2023-02-20T10:35:08;101788.47;;;7.81;100.00
54262;BME280;40174;52.364;6.452;2023-02-20T10:37:39;101781.22;;;7.84;100.00
54262;BME280;40174;52.364;6.452;2023-02-20T10:40:13;101790.00;;;7.85;100.00
54262;BME280;40174;52.364;6.452;2023-02-20T10:42:47;101804.66;;;7.89;100.00
54262;BME280;40174;52.364;6.452;2023-02-20T10:45:23;101797.47;;;7.93;100.00
54262;BME280;40174;52.364;6.452;2023-02-20T10:47:56;101794.84;;;7.93;100.00
54262;BME280;40174;52.364;6.452;2023-02-20T10:50:34;101797.41;;;7.94;100.00
54262;BME280;40174;52.364;6.452;2023-02-20T10:53:09;101792.13;;;7.94;100.00
54262;BME280;40174;52.364;6.452;2023-02-20T10:55:42;101803.34;;;7.98;100.00
54262;BME280;40174;52.364;6.452;2023-02-20T10:58:13;101814.56;;;8.01;100.00
54262;BME280;40174;52.364;6.452;2023-02-20T11:00:46;101821.09;;;7.94;100.00
54262;BME280;40174;52.364;6.452;2023-02-20T11:03:20;101820.16;;;7.95;100.00
54262;BME280;40174;52.364;6.452;2023-02-20T11:05:53;101815.59;;;7.99;100.00
54262;BME280;40174;52.364;6.452;2023-02-20T11:08:19;101813.09;;;7.96;100.00
54262;BME280;40174;52.364;6.452;2023-02-20T11:10:46;101821.94;;;7.95;100.00
54262;BME280;40174;52.364;6.452;2023-02-20T11:13:16;101813.19;;;7.94;100.00
54262;BME280;40174;52.364;6.452;2023-02-20T11:15:44;101805.38;;;7.93;100.00
54262;BME280;40174;52.364;6.452;2023-02-20T11:18:20;101813.28;;;7.93;100.00
54262;BME280;40174;52.364;6.452;2023-02-20T11:20:52;101818.53;;;7.93;100.00
54262;BME280;40174;52.364;6.452;2023-02-20T11:23:37;101828.13;;;7.94;100.00
54262;BME280;40174;52.364;6.452;2023-02-20T11:26:22;101838.66;;;7.94;100.00
54262;BME280;40174;52.364;6.452;2023-02-20T11:28:59;101834.25;;;7.94;100.00
54262;BME280;40174;52.364;6.452;2023-02-20T11:31:28;101814.88;;;7.95;100.00
54262;BME280;40174;52.364;6.452;2023-02-20T11:33:54;101815.59;;;7.99;100.00
54262;BME280;40174;52.364;6.452;2023-02-20T11:36:24;101817.38;;;7.98;100.00
54262;BME280;40174;52.364;6.452;2023-02-20T11:38:56;101812.19;;;7.97;100.00
54262;BME280;40174;52.364;6.452;2023-02-20T11:41:26;101806.84;;;7.98;100.00
54262;BME280;40174;52.364;6.452;2023-02-20T11:44:06;101797.16;;;7.99;100.00
54262;BME280;40174;52.364;6.452;2023-02-20T11:46:33;101782.03;;;8.02;100.00
54262;BME280;40174;52.364;6.452;2023-02-20T11:49:01;101783.63;;;8.05;100.00
54262;BME280;40174;52.364;6.452;2023-02-20T11:51:36;101781.78;;;8.07;100.00
54262;BME280;40174;52.364;6.452;2023-02-20T11:54:08;101791.31;;;8.09;100.00
54262;BME280;40174;52.364;6.452;2023-02-20T11:56:35;101790.38;;;8.10;100.00
54262;BME280;40174;52.364;6.452;2023-02-20T11:59:35;101787.72;;;8.10;100.00
54262;BME280;40174;52.364;6.452;2023-02-20T12:02:20;101784.06;;;8.13;100.00
54262;BME280;40174;52.364;6.452;2023-02-20T12:05:02;101778.56;;;8.18;100.00
54262;BME280;40174;52.364;6.452;2023-02-20T12:07:33;101775.00;;;8.19;100.00
54262;BME280;40174;52.364;6.452;2023-02-20T12:10:04;101774.91;;;8.20;100.00
54262;BME280;40174;52.364;6.452;2023-02-20T12:12:32;101780.94;;;8.22;100.00
54262;BME280;40174;52.364;6.452;2023-02-20T12:14:58;101782.97;;;8.17;100.00
54262;BME280;40174;52.364;6.452;2023-02-20T12:17:32;101789.19;;;8.16;100.00
54262;BME280;40174;52.364;6.452;2023-02-20T12:20:07;101790.88;;;8.17;100.00
54262;BME280;40174;52.364;6.452;2023-02-20T12:22:37;101790.03;;;8.17;100.00
54262;BME280;40174;52.364;6.452;2023-02-20T12:25:14;101783.94;;;8.16;100.00
54262;BME280;40174;52.364;6.452;2023-02-20T12:27:56;101790.09;;;8.15;100.00
54262;BME280;40174;52.364;6.452;2023-02-20T12:30:36;101794.28;;;8.19;100.00
54262;BME280;40174;52.364;6.452;2023-02-20T12:33:21;101782.03;;;8.18;100.00
54262;BME280;40174;52.364;6.452;2023-02-20T12:35:57;101795.38;;;8.15;100.00
54262;BME280;40174;52.364;6.452;2023-02-20T12:38:34;101779.25;;;8.21;100.00
54262;BME280;40174;52.364;6.452;2023-02-20T12:41:15;101770.00;;;8.30;100.00
54262;BME280;40174;52.364;6.452;2023-02-20T12:43:53;101767.69;;;8.24;100.00
54262;BME280;40174;52.364;6.452;2023-02-20T12:46:33;101769.81;;;8.17;100.00
54262;BME280;40174;52.364;6.452;2023-02-20T12:49:17;101768.13;;;8.16;100.00
54262;BME280;40174;52.364;6.452;2023-02-20T12:51:52;101757.66;;;8.15;100.00
54262;BME280;40174;52.364;6.452;2023-02-20T12:54:31;101752.31;;;8.16;100.00
54262;BME280;40174;52.364;6.452;2023-02-20T12:57:06;101756.47;;;8.20;100.00
54262;BME280;40174;52.364;6.452;2023-02-20T12:59:46;101758.31;;;8.18;100.00
54262;BME280;40174;52.364;6.452;2023-02-20T13:02:21;101770.56;;;8.19;100.00
54262;BME280;40174;52.364;6.452;2023-02-20T13:04:53;101760.22;;;8.16;100.00
54262;BME280;40174;52.364;6.452;2023-02-20T13:07:23;101755.69;;;8.18;100.00
54262;BME280;40174;52.364;6.452;2023-02-20T13:09:58;101768.59;;;8.23;100.00
54262;BME280;40174;52.364;6.452;2023-02-20T13:12:27;101757.41;;;8.19;100.00
54262;BME280;40174;52.364;6.452;2023-02-20T13:14:59;101760.22;;;8.16;100.00